createdAt,value
2017-11-04T00:00:33.217Z,12.07
2017-11-04T00:03:01.037Z,11.40
2017-11-04T00:05:28.824Z,10.57
2017-11-04T00:07:56.616Z,11.70
2017-11-04T00:10:24.588Z,10.00
2017-11-04T00:12:52.387Z,10.70
2017-11-04T00:15:20.956Z,11.70
2017-11-04T00:17:49.513Z,12.27
2017-11-04T00:20:17.427Z,12.27
2017-11-04T00:22:45.265Z,11.30
2017-11-04T00:25:13.187Z,13.10
2017-11-04T00:27:41.077Z,14.73
2017-11-04T00:30:08.897Z,15.93
2017-11-04T00:32:36.720Z,17.40
2017-11-04T00:35:04.618Z,17.17
2017-11-04T00:37:33.156Z,17.43
2017-11-04T00:40:00.988Z,18.00
2017-11-04T00:42:28.826Z,18.93
2017-11-04T00:44:57.394Z,18.03
2017-11-04T00:47:25.185Z,17.60
2017-11-04T00:49:52.978Z,16.13
2017-11-04T00:52:20.811Z,17.20
2017-11-04T00:54:49.409Z,18.53
2017-11-04T00:57:17.388Z,19.30
2017-11-04T00:59:45.235Z,17.53
2017-11-04T01:02:13.089Z,17.17
2017-11-04T01:04:41.716Z,17.50
2017-11-04T01:07:09.532Z,15.37
2017-11-04T01:09:38.139Z,14.70
2017-11-04T01:12:05.968Z,13.83
2017-11-04T01:14:33.859Z,14.47
2017-11-04T01:17:01.700Z,14.70
2017-11-04T01:19:29.539Z,15.27
2017-11-04T01:21:57.758Z,13.27
2017-11-04T01:24:26.618Z,12.60
2017-11-04T01:26:54.468Z,13.60
2017-11-04T01:29:23.011Z,14.80
2017-11-04T01:31:50.877Z,14.60
2017-11-04T01:34:18.705Z,16.70
2017-11-04T01:36:46.892Z,16.00
2017-11-04T01:39:15.570Z,16.10
2017-11-04T01:41:44.248Z,16.67
2017-11-04T01:44:12.119Z,15.97
2017-11-04T01:46:40.036Z,15.53
2017-11-04T01:49:07.897Z,16.97
2017-11-04T01:51:35.756Z,16.23
2017-11-04T01:54:03.060Z,16.70
2017-11-04T01:56:30.908Z,16.57
2017-11-04T01:58:58.838Z,17.00
2017-11-04T02:01:26.839Z,16.60
2017-11-04T02:03:54.683Z,17.40
2017-11-04T02:06:22.743Z,15.93
2017-11-04T02:08:50.616Z,16.30
2017-11-04T02:11:18.559Z,16.43
2017-11-04T02:13:47.149Z,17.27
2017-11-04T02:16:15.790Z,15.73
2017-11-04T02:18:43.610Z,14.77
2017-11-04T02:21:11.556Z,15.32
2017-11-04T02:23:40.281Z,14.63
2017-11-04T02:26:08.148Z,14.63
2017-11-04T02:28:36.106Z,15.70
2017-11-04T02:31:04.015Z,14.00
2017-11-04T02:33:31.903Z,13.80
2017-11-04T02:36:00.532Z,14.90
2017-11-04T02:38:28.378Z,14.50
2017-11-04T02:40:57.074Z,15.93
2017-11-04T02:43:24.888Z,15.10
2017-11-04T02:45:52.739Z,14.67
2017-11-04T02:48:20.604Z,15.07
2017-11-04T02:50:48.414Z,13.33
2017-11-04T02:53:17.034Z,14.30
2017-11-04T02:55:44.974Z,14.20
2017-11-04T02:58:13.782Z,15.07
2017-11-04T03:00:41.631Z,15.37
2017-11-04T03:03:09.631Z,15.97
2017-11-04T03:05:37.551Z,14.17
2017-11-04T03:08:06.191Z,15.43
2017-11-04T03:10:34.103Z,14.80
2017-11-04T03:13:02.764Z,14.63
2017-11-04T03:15:30.606Z,14.97
2017-11-04T03:17:58.459Z,14.00
2017-11-04T03:20:26.460Z,13.73
2017-11-04T03:22:54.436Z,14.73
2017-11-04T03:25:22.463Z,14.33
2017-11-04T03:27:50.575Z,13.50
2017-11-04T03:30:18.548Z,13.83
2017-11-04T03:32:46.441Z,13.17
2017-11-04T03:35:15.240Z,13.60
2017-11-04T03:37:44.187Z,13.33
2017-11-04T03:40:12.167Z,13.50
2017-11-04T03:42:40.075Z,12.47
2017-11-04T03:45:07.914Z,13.57
2017-11-04T03:47:35.763Z,14.50
2017-11-04T03:50:03.698Z,12.33
2017-11-04T03:52:32.516Z,13.13
2017-11-04T03:55:00.374Z,13.13
2017-11-04T03:57:28.295Z,12.80
2017-11-04T03:59:56.177Z,12.47
2017-11-04T04:02:24.040Z,12.40
2017-11-04T04:04:51.872Z,11.47
2017-11-04T04:07:20.555Z,13.83
2017-11-04T04:09:49.338Z,14.17
2017-11-04T04:12:17.215Z,14.70
2017-11-04T04:14:46.004Z,14.73
2017-11-04T04:17:14.609Z,14.40
2017-11-04T04:19:42.488Z,14.80
2017-11-04T04:22:10.331Z,13.60
2017-11-04T04:24:39.041Z,15.80
2017-11-04T04:27:07.085Z,15.13
2017-11-04T04:29:35.673Z,14.63
2017-11-04T04:32:03.573Z,15.63
2017-11-04T04:34:31.737Z,14.03
2017-11-04T04:36:59.646Z,13.87
2017-11-04T04:39:27.676Z,13.80
2017-11-04T04:41:55.621Z,14.07
2017-11-04T04:44:24.268Z,13.27
2017-11-04T04:46:52.177Z,13.00
2017-11-04T04:49:20.153Z,12.53
2017-11-04T04:51:48.098Z,12.83
2017-11-04T04:54:16.007Z,13.07
2017-11-04T04:56:43.825Z,11.93
2017-11-04T04:59:12.418Z,11.33
2017-11-04T05:01:41.039Z,11.50
2017-11-04T05:04:08.923Z,12.30
2017-11-04T05:06:36.784Z,11.90
2017-11-04T05:09:04.876Z,12.07
2017-11-04T05:11:32.726Z,11.87
2017-11-04T05:14:00.567Z,12.40
2017-11-04T05:16:28.421Z,12.20
2017-11-04T05:18:56.265Z,12.83
2017-11-04T05:21:24.912Z,13.30
2017-11-04T05:23:53.083Z,13.23
2017-11-04T05:26:20.998Z,12.20
2017-11-04T05:28:49.725Z,12.80
2017-11-04T05:31:17.588Z,14.73
2017-11-04T05:33:45.669Z,13.70
2017-11-04T05:36:13.640Z,13.30
2017-11-04T05:38:41.583Z,14.13
2017-11-04T05:41:09.432Z,15.80
2017-11-04T05:43:38.272Z,14.20
2017-11-04T05:46:06.165Z,13.03
2017-11-04T05:48:34.840Z,12.90
2017-11-04T05:51:02.745Z,13.13
2017-11-04T05:53:30.611Z,13.60
2017-11-04T05:55:58.652Z,14.70
2017-11-04T05:58:27.528Z,12.87
2017-11-04T06:00:55.444Z,15.50
2017-11-04T06:03:23.287Z,14.17
2017-11-04T06:05:52.064Z,14.30
2017-11-04T06:08:19.870Z,14.03
2017-11-04T06:10:47.714Z,14.00
2017-11-04T06:13:16.405Z,13.80
2017-11-04T06:15:45.001Z,14.83
2017-11-04T06:18:12.877Z,14.10
2017-11-04T06:20:40.889Z,12.80
2017-11-04T06:23:08.832Z,13.17
2017-11-04T06:25:37.373Z,13.07
2017-11-04T06:28:05.191Z,12.23
2017-11-04T06:30:33.207Z,11.80
2017-11-04T06:33:01.144Z,11.43
2017-11-04T06:35:29.047Z,9.47
2017-11-04T06:37:56.992Z,9.50
2017-11-04T06:40:25.620Z,9.80
2017-11-04T06:42:53.554Z,6.47
2017-11-04T06:45:22.352Z,6.97
2017-11-04T06:47:50.255Z,6.13
2017-11-04T06:50:18.295Z,5.50
2017-11-04T06:52:46.156Z,5.67
2017-11-04T06:55:14.236Z,4.20
2017-11-04T06:57:42.124Z,4.40
2017-11-04T07:00:09.999Z,4.43
2017-11-04T07:02:37.897Z,2.90
2017-11-04T07:05:05.842Z,3.23
2017-11-04T07:07:33.654Z,3.40
2017-11-04T07:10:02.290Z,3.50
2017-11-04T07:12:30.188Z,2.87
2017-11-04T07:14:58.866Z,2.83
2017-11-04T07:17:26.733Z,3.90
2017-11-04T07:19:54.539Z,3.97
2017-11-04T07:22:22.571Z,3.20
2017-11-04T07:25:03.262Z,3.70
2017-11-04T07:27:31.633Z,4.63
2017-11-04T07:29:59.504Z,4.30
2017-11-04T07:32:28.297Z,3.90
2017-11-04T07:34:56.981Z,3.40
2017-11-04T07:37:24.933Z,4.07
2017-11-04T07:39:53.625Z,3.10
2017-11-04T07:42:22.321Z,3.40
2017-11-04T07:44:50.276Z,3.60
2017-11-04T07:47:18.965Z,4.00
2017-11-04T07:49:47.574Z,4.20
2017-11-04T07:52:15.522Z,3.37
2017-11-04T07:54:44.205Z,3.03
2017-11-04T07:57:12.979Z,3.50
2017-11-04T07:59:41.680Z,3.60
2017-11-04T08:02:10.319Z,3.23
2017-11-04T08:04:38.174Z,3.60
2017-11-04T08:07:06.305Z,2.67
2017-11-04T08:09:35.139Z,3.30
2017-11-04T08:12:03.003Z,3.80
2017-11-04T08:14:30.942Z,3.37
2017-11-04T08:16:58.900Z,3.67
2017-11-04T08:19:44.783Z,3.87
2017-11-04T08:22:13.508Z,3.60
2017-11-04T08:24:42.799Z,3.27
2017-11-04T08:27:13.541Z,3.60
2017-11-04T08:29:41.441Z,3.10
2017-11-04T08:32:09.430Z,2.80
2017-11-04T08:34:38.250Z,2.73
2017-11-04T08:37:08.810Z,2.50
2017-11-04T08:39:36.820Z,2.80
2017-11-04T08:42:06.041Z,1.73
2017-11-04T08:44:33.941Z,1.90
2017-11-04T08:47:02.842Z,1.90
2017-11-04T08:49:30.945Z,1.80
2017-11-04T08:51:59.639Z,1.87
2017-11-04T08:54:30.820Z,2.00
2017-11-04T08:57:00.701Z,1.97
2017-11-04T08:59:35.307Z,1.13
2017-11-04T09:02:03.998Z,3.00
2017-11-04T09:04:32.617Z,3.50
2017-11-04T09:07:00.575Z,3.43
2017-11-04T09:09:28.529Z,3.30
2017-11-04T09:11:56.388Z,2.80
2017-11-04T09:14:25.033Z,2.33
2017-11-04T09:16:52.906Z,3.47
2017-11-04T09:19:20.988Z,2.27
2017-11-04T09:21:48.813Z,3.20
2017-11-04T09:24:16.617Z,2.20
2017-11-04T09:26:44.515Z,1.40
2017-11-04T09:29:18.326Z,2.33
2017-11-04T09:31:48.113Z,1.10
2017-11-04T09:34:16.905Z,1.63
2017-11-04T09:36:44.862Z,1.97
2017-11-04T09:39:13.607Z,2.90
2017-11-04T09:41:41.593Z,2.53
2017-11-04T09:44:09.553Z,2.27
2017-11-04T09:46:37.571Z,3.03
2017-11-04T09:49:06.328Z,2.70
2017-11-04T09:51:34.277Z,2.67
2017-11-04T09:54:02.095Z,1.90
2017-11-04T09:56:35.450Z,2.67
2017-11-04T09:59:03.325Z,9.30
2017-11-04T10:01:31.152Z,10.23
2017-11-04T10:03:58.965Z,9.70
2017-11-04T10:06:26.739Z,15.27
2017-11-04T10:08:54.540Z,18.80
2017-11-04T10:11:22.472Z,4.37
2017-11-04T10:13:50.291Z,3.93
2017-11-04T10:16:19.137Z,3.13
2017-11-04T10:18:47.145Z,2.87
2017-11-04T10:21:15.038Z,3.30
2017-11-04T10:23:42.967Z,3.10
2017-11-04T10:26:10.751Z,3.03
2017-11-04T10:28:38.592Z,2.10
2017-11-04T10:31:07.308Z,2.10
2017-11-04T10:33:36.484Z,2.27
2017-11-04T10:36:05.561Z,2.77
2017-11-04T10:41:13.769Z,2.53
2017-11-04T10:43:41.766Z,2.50
2017-11-04T10:46:10.422Z,2.20
2017-11-04T10:48:39.094Z,2.67
2017-11-04T10:51:07.874Z,2.10
2017-11-04T10:53:36.184Z,2.43
2017-11-04T10:58:39.402Z,1.97
2017-11-04T11:01:07.955Z,2.43
2017-11-04T11:03:38.045Z,2.40
2017-11-04T11:06:06.181Z,1.73
2017-11-04T11:08:34.038Z,2.47
2017-11-04T11:11:02.657Z,1.60
2017-11-04T11:13:30.586Z,2.23
2017-11-04T11:15:59.174Z,3.00
2017-11-04T11:18:27.725Z,1.33
2017-11-04T11:20:56.446Z,2.10
2017-11-04T11:23:25.008Z,1.87
2017-11-04T11:25:52.968Z,2.20
2017-11-04T11:28:20.772Z,2.00
2017-11-04T11:30:49.393Z,2.17
2017-11-04T11:33:18.083Z,2.60
2017-11-04T11:35:47.581Z,3.53
2017-11-04T11:38:16.753Z,2.70
2017-11-04T11:40:44.628Z,2.20
2017-11-04T11:43:12.524Z,2.93
2017-11-04T11:45:40.331Z,2.83
2017-11-04T11:48:09.221Z,4.90
2017-11-04T11:50:37.312Z,2.70
2017-11-04T11:53:05.235Z,3.80
2017-11-04T11:55:33.240Z,3.20
2017-11-04T11:58:01.052Z,3.27
2017-11-04T12:00:29.836Z,4.90
2017-11-04T12:02:59.392Z,3.50
2017-11-04T12:05:28.072Z,3.50
2017-11-04T12:07:57.022Z,3.87
2017-11-04T12:10:24.828Z,3.70
2017-11-04T12:12:53.570Z,4.43
2017-11-04T12:15:22.210Z,4.93
2017-11-04T12:17:50.208Z,9.30
2017-11-04T12:20:18.838Z,6.40
2017-11-04T12:22:47.487Z,5.70
2017-11-04T12:25:15.364Z,4.30
2017-11-04T12:27:43.185Z,3.67
2017-11-04T12:30:12.214Z,3.30
2017-11-04T12:32:40.066Z,3.60
2017-11-04T12:35:12.484Z,3.13
2017-11-04T12:37:43.263Z,3.17
2017-11-04T12:40:13.375Z,3.53
2017-11-04T12:42:41.248Z,3.20
2017-11-04T12:45:09.261Z,2.67
2017-11-04T12:47:37.320Z,3.00
2017-11-04T12:50:05.195Z,3.10
2017-11-04T12:52:37.782Z,3.17
2017-11-04T12:55:05.836Z,2.87
2017-11-04T12:57:33.756Z,3.40
2017-11-04T13:00:03.065Z,4.43
2017-11-04T13:02:33.258Z,3.40
2017-11-04T13:05:01.844Z,4.73
2017-11-04T13:07:30.436Z,2.67
2017-11-04T13:09:59.082Z,3.07
2017-11-04T13:12:26.858Z,2.90
2017-11-04T13:14:54.745Z,3.90
2017-11-04T13:17:23.502Z,4.77
2017-11-04T13:19:51.317Z,7.27
2017-11-04T13:22:20.263Z,25.07
2017-11-04T13:24:49.192Z,11.00
2017-11-04T13:27:17.007Z,7.13
2017-11-04T13:29:44.827Z,9.60
2017-11-04T13:32:14.848Z,4.10
2017-11-04T13:34:44.907Z,5.90
2017-11-04T13:37:12.765Z,5.30
2017-11-04T13:39:40.708Z,3.10
2017-11-04T13:42:08.488Z,3.10
2017-11-04T13:44:36.577Z,2.97
2017-11-04T13:47:04.399Z,3.00
2017-11-04T13:49:34.332Z,2.30
2017-11-04T13:52:03.179Z,2.57
2017-11-04T13:54:31.804Z,2.20
2017-11-04T13:56:59.932Z,2.97
2017-11-04T13:59:27.757Z,2.00
2017-11-04T14:02:01.597Z,2.90
2017-11-04T14:04:29.410Z,2.90
2017-11-04T14:06:57.343Z,1.37
2017-11-04T14:09:25.969Z,1.50
2017-11-04T14:11:55.395Z,2.20
2017-11-04T14:14:23.164Z,1.53
2017-11-04T14:16:51.251Z,2.20
2017-11-04T14:21:58.639Z,1.40
2017-11-04T14:24:27.484Z,1.70
2017-11-04T14:26:55.552Z,1.73
2017-11-04T14:29:23.460Z,1.70
2017-11-04T14:31:51.503Z,1.80
2017-11-04T14:34:19.357Z,1.40
2017-11-04T14:36:47.212Z,1.50
2017-11-04T14:39:15.061Z,1.63
2017-11-04T14:41:43.715Z,1.67
2017-11-04T14:44:11.929Z,1.83
2017-11-04T14:46:39.792Z,1.80
2017-11-04T14:49:08.509Z,2.10
2017-11-04T14:51:36.311Z,1.77
2017-11-04T14:54:04.183Z,1.43
2017-11-04T14:56:32.087Z,1.53
2017-11-04T14:59:07.958Z,1.43
2017-11-04T15:01:43.598Z,1.73
2017-11-04T15:04:12.559Z,1.27
2017-11-04T15:06:41.491Z,1.37
2017-11-04T15:09:09.361Z,2.40
2017-11-04T15:11:37.989Z,2.13
2017-11-04T15:14:05.842Z,1.70
2017-11-04T15:16:33.663Z,2.40
2017-11-04T15:19:01.477Z,2.17
2017-11-04T15:21:32.184Z,1.30
2017-11-04T15:24:04.270Z,1.80
2017-11-04T15:26:32.281Z,2.07
2017-11-04T15:29:00.906Z,1.40
2017-11-04T15:31:28.735Z,1.80
2017-11-04T15:33:57.329Z,1.97
2017-11-04T15:36:25.317Z,1.47
2017-11-04T15:38:53.229Z,1.70
2017-11-04T15:41:21.852Z,2.00
2017-11-04T15:43:49.733Z,1.73
2017-11-04T15:46:17.623Z,1.83
2017-11-04T15:48:45.456Z,1.50
2017-11-04T15:51:13.377Z,2.23
2017-11-04T15:53:41.492Z,2.07
2017-11-04T15:56:09.384Z,2.13
2017-11-04T15:58:37.297Z,1.73
2017-11-04T16:01:05.889Z,2.07
2017-11-04T16:03:34.526Z,1.73
2017-11-04T16:06:02.500Z,1.77
2017-11-04T16:08:30.431Z,2.07
2017-11-04T16:10:58.248Z,1.70
2017-11-04T16:13:26.206Z,2.20
2017-11-04T16:15:54.128Z,1.83
2017-11-04T16:18:23.816Z,1.97
2017-11-04T16:20:52.437Z,1.97
2017-11-04T16:23:20.305Z,2.17
2017-11-04T16:25:48.187Z,2.03
2017-11-04T16:28:16.045Z,2.10
2017-11-04T16:30:43.913Z,2.00
2017-11-04T16:33:11.764Z,2.13
2017-11-04T16:35:39.614Z,2.13
2017-11-04T16:38:07.498Z,1.77
2017-11-04T16:40:35.329Z,1.80
2017-11-04T16:43:03.936Z,2.00
2017-11-04T16:45:31.744Z,2.67
2017-11-04T16:47:59.620Z,3.67
2017-11-04T16:50:27.476Z,2.50
2017-11-04T16:52:55.427Z,3.50
2017-11-04T16:55:23.350Z,2.50
2017-11-04T16:57:52.110Z,2.60
2017-11-04T17:00:20.064Z,2.87
2017-11-04T17:02:47.865Z,2.57
2017-11-04T17:05:16.619Z,2.53
2017-11-04T17:07:44.550Z,1.97
2017-11-04T17:10:12.523Z,2.73
2017-11-04T17:12:40.426Z,2.30
2017-11-04T17:15:08.331Z,2.80
2017-11-04T17:17:37.014Z,2.73
2017-11-04T17:20:05.664Z,3.00
2017-11-04T17:22:33.580Z,2.70
2017-11-04T17:25:01.470Z,3.40
2017-11-04T17:27:29.304Z,2.23
2017-11-04T17:29:58.077Z,3.13
2017-11-04T17:32:25.915Z,2.60
2017-11-04T17:34:54.377Z,2.63
2017-11-04T17:37:22.245Z,1.67
2017-11-04T17:39:50.103Z,2.73
2017-11-04T17:42:18.167Z,2.30
2017-11-04T17:44:46.005Z,2.53
2017-11-04T17:47:14.629Z,2.17
2017-11-04T17:49:42.472Z,2.30
2017-11-04T17:52:10.474Z,2.50
2017-11-04T17:54:38.825Z,2.50
2017-11-04T17:57:07.493Z,2.60
2017-11-04T17:59:36.126Z,3.23
2017-11-04T18:02:04.024Z,2.90
2017-11-04T18:04:33.107Z,2.80
2017-11-04T18:07:01.016Z,2.60
2017-11-04T18:09:28.910Z,3.23
2017-11-04T18:11:57.907Z,2.97
2017-11-04T18:14:25.753Z,3.30
2017-11-04T18:16:53.693Z,3.20
2017-11-04T18:19:22.353Z,3.17
2017-11-04T18:21:50.436Z,3.67
2017-11-04T18:24:18.286Z,3.30
2017-11-04T18:26:46.138Z,3.00
2017-11-04T18:29:13.988Z,2.90
2017-11-04T18:31:41.900Z,3.80
2017-11-04T18:34:09.770Z,3.10
2017-11-04T18:36:38.406Z,2.60
2017-11-04T18:39:06.994Z,3.50
2017-11-04T18:41:34.911Z,3.53
2017-11-04T18:44:03.558Z,4.53
2017-11-04T18:46:31.405Z,3.27
2017-11-04T18:48:59.352Z,3.67
2017-11-04T18:51:27.215Z,7.60
2017-11-04T18:53:55.032Z,40.57
2017-11-04T18:56:22.867Z,17.67
2017-11-04T18:58:50.763Z,15.00
2017-11-04T19:01:18.697Z,10.90
2017-11-04T19:03:47.348Z,9.40
2017-11-04T19:06:15.924Z,9.20
2017-11-04T19:08:43.744Z,7.30
2017-11-04T19:11:12.039Z,13.50
2017-11-04T19:13:39.900Z,8.87
2017-11-04T19:16:07.749Z,8.17
2017-11-04T19:18:35.644Z,5.93
2017-11-04T19:21:03.805Z,8.50
2017-11-04T19:23:31.780Z,4.10
2017-11-04T19:26:00.540Z,3.80
2017-11-04T19:28:28.376Z,4.47
2017-11-04T19:30:57.276Z,6.50
2017-11-04T19:33:25.381Z,4.00
2017-11-04T19:35:53.276Z,4.67
2017-11-04T19:38:21.460Z,14.80
2017-11-04T19:40:52.729Z,9.23
2017-11-04T19:43:25.298Z,10.07
2017-11-04T19:45:56.588Z,6.50
2017-11-04T19:48:24.488Z,4.57
2017-11-04T19:50:52.431Z,9.97
2017-11-04T19:53:23.927Z,8.17
2017-11-04T19:55:52.700Z,25.57
2017-11-04T19:58:20.577Z,10.80
2017-11-04T20:00:48.476Z,12.70
2017-11-04T20:03:16.728Z,22.20
2017-11-04T20:05:47.296Z,16.13
2017-11-04T20:08:15.242Z,14.20
2017-11-04T20:10:43.319Z,10.10
2017-11-04T20:13:11.150Z,5.60
2017-11-04T20:15:39.124Z,5.07
2017-11-04T20:18:06.976Z,9.60
2017-11-04T20:20:34.807Z,4.80
2017-11-04T20:23:02.801Z,4.80
2017-11-04T20:25:30.695Z,5.87
2017-11-04T20:27:59.329Z,6.17
2017-11-04T20:30:27.213Z,6.10
2017-11-04T20:32:55.041Z,5.87
2017-11-04T20:35:23.046Z,6.60
2017-11-04T20:37:50.929Z,6.10
2017-11-04T20:40:19.041Z,20.87
2017-11-04T20:42:46.959Z,16.93
2017-11-04T20:45:14.886Z,10.40
2017-11-04T20:47:42.765Z,8.60
2017-11-04T20:50:10.580Z,9.77
2017-11-04T20:52:39.583Z,8.27
2017-11-04T20:55:08.428Z,6.40
2017-11-04T20:57:36.410Z,11.30
2017-11-04T21:00:04.344Z,15.37
2017-11-04T21:02:32.189Z,6.40
2017-11-04T21:05:00.235Z,5.80
2017-11-04T21:07:28.919Z,6.30
2017-11-04T21:09:57.556Z,6.60
2017-11-04T21:12:25.395Z,5.03
2017-11-04T21:14:53.267Z,5.20
2017-11-04T21:17:21.996Z,4.17
2017-11-04T21:19:49.868Z,4.60
2017-11-04T21:22:17.692Z,3.73
2017-11-04T21:24:45.542Z,2.93
2017-11-04T21:27:13.444Z,3.40
2017-11-04T21:29:41.314Z,2.90
2017-11-04T21:32:09.249Z,2.57
2017-11-04T21:34:37.093Z,2.17
2017-11-04T21:37:05.755Z,2.03
2017-11-04T21:39:33.994Z,2.30
2017-11-04T21:42:01.964Z,2.20
2017-11-04T21:44:30.136Z,1.57
2017-11-04T21:46:58.051Z,3.83
2017-11-04T21:49:30.063Z,3.00
2017-11-04T21:51:58.042Z,2.60
2017-11-04T21:54:26.044Z,2.30
2017-11-04T21:56:54.839Z,4.00
2017-11-04T21:59:22.675Z,2.77
2017-11-04T22:01:50.499Z,2.90
2017-11-04T22:04:19.231Z,2.80
2017-11-04T22:06:47.147Z,3.00
2017-11-04T22:09:19.257Z,3.60
2017-11-04T22:11:57.558Z,2.80
2017-11-04T22:14:25.579Z,3.60
2017-11-04T22:16:53.500Z,3.57
2017-11-04T22:19:29.485Z,3.40
2017-11-04T22:21:59.480Z,3.77
2017-11-04T22:24:27.378Z,4.20
2017-11-04T22:26:55.227Z,4.97
2017-11-04T22:29:23.089Z,3.93
2017-11-04T22:31:50.906Z,2.83
2017-11-04T22:34:19.553Z,2.60
2017-11-04T22:36:47.397Z,3.10
2017-11-04T22:39:15.257Z,3.00
2017-11-04T22:41:43.074Z,2.37
2017-11-04T22:44:11.708Z,2.60
2017-11-04T22:46:39.627Z,2.50
2017-11-04T22:49:07.735Z,2.70
2017-11-04T22:51:35.616Z,2.70
2017-11-04T22:54:03.495Z,2.43
2017-11-04T22:56:31.437Z,2.97
2017-11-04T22:58:59.259Z,3.10
2017-11-04T23:01:27.927Z,2.70
2017-11-04T23:03:55.833Z,2.90
2017-11-04T23:06:23.753Z,2.47
2017-11-04T23:08:52.470Z,2.60
2017-11-04T23:11:20.346Z,2.43
2017-11-04T23:13:49.010Z,2.63
2017-11-04T23:16:17.644Z,2.10
2017-11-04T23:18:45.540Z,2.03
2017-11-04T23:21:13.538Z,2.03
2017-11-04T23:23:42.421Z,2.30
2017-11-04T23:26:10.287Z,2.20
2017-11-04T23:28:38.157Z,1.40
2017-11-04T23:31:06.740Z,2.17
2017-11-04T23:33:34.626Z,1.80
2017-11-04T23:36:02.509Z,1.90
2017-11-04T23:38:30.411Z,2.23
2017-11-04T23:40:58.302Z,1.90
2017-11-04T23:43:26.209Z,1.90
2017-11-04T23:45:54.049Z,2.10
2017-11-04T23:48:22.723Z,1.53
2017-11-04T23:50:50.678Z,1.77
2017-11-04T23:53:19.475Z,2.53
2017-11-04T23:55:47.412Z,3.10
2017-11-04T23:58:15.962Z,2.43
